sensor_id;sensor_type;location;lat;lon;timestamp;P1;durP1;ratioP1;P2;durP2;ratioP2
23270;SDS011;11804;51.118;17.058;2024-01-07T00:01:46;4.57;;;1.80;;
23270;SDS011;11804;51.118;17.058;2024-01-07T00:04:15;3.10;;;1.40;;
23270;SDS011;11804;51.118;17.058;2024-01-07T00:06:43;3.57;;;2.13;;
23270;SDS011;11804;51.118;17.058;2024-01-07T00:09:11;3.07;;;1.73;;
23270;SDS011;11804;51.118;17.058;2024-01-07T00:11:39;5.17;;;2.40;;
23270;SDS011;11804;51.118;17.058;2024-01-07T00:14:07;5.83;;;2.47;;
23270;SDS011;11804;51.118;17.058;2024-01-07T00:16:35;2.67;;;1.63;;
23270;SDS011;11804;51.118;17.058;2024-01-07T00:19:02;5.07;;;1.90;;
23270;SDS011;11804;51.118;17.058;2024-01-07T00:21:30;3.50;;;1.70;;
23270;SDS011;11804;51.118;17.058;2024-01-07T00:23:58;2.47;;;1.47;;
23270;SDS011;11804;51.118;17.058;2024-01-07T00:26:27;4.43;;;2.30;;
23270;SDS011;11804;51.118;17.058;2024-01-07T00:28:54;1.33;;;1.03;;
23270;SDS011;11804;51.118;17.058;2024-01-07T00:31:22;3.40;;;1.77;;
23270;SDS011;11804;51.118;17.058;2024-01-07T00:33:51;2.33;;;1.80;;
23270;SDS011;11804;51.118;17.058;2024-01-07T00:36:19;7.43;;;1.60;;
23270;SDS011;11804;51.118;17.058;2024-01-07T00:38:46;5.43;;;2.50;;
23270;SDS011;11804;51.118;17.058;2024-01-07T00:41:16;5.67;;;2.00;;
23270;SDS011;11804;51.118;17.058;2024-01-07T00:43:45;1.97;;;1.23;;
23270;SDS011;11804;51.118;17.058;2024-01-07T00:46:12;2.37;;;1.50;;
23270;SDS011;11804;51.118;17.058;2024-01-07T00:48:40;2.67;;;1.67;;
23270;SDS011;11804;51.118;17.058;2024-01-07T00:51:08;4.10;;;1.90;;
23270;SDS011;11804;51.118;17.058;2024-01-07T00:53:36;3.17;;;2.07;;
23270;SDS011;11804;51.118;17.058;2024-01-07T00:56:04;2.63;;;1.40;;
23270;SDS011;11804;51.118;17.058;2024-01-07T00:58:32;3.13;;;1.90;;
23270;SDS011;11804;51.118;17.058;2024-01-07T01:01:00;4.90;;;1.67;;
23270;SDS011;11804;51.118;17.058;2024-01-07T01:03:27;4.13;;;2.13;;
23270;SDS011;11804;51.118;17.058;2024-01-07T01:05:55;3.23;;;1.83;;
23270;SDS011;11804;51.118;17.058;2024-01-07T01:08:23;4.77;;;2.53;;
23270;SDS011;11804;51.118;17.058;2024-01-07T01:10:50;7.20;;;2.00;;
23270;SDS011;11804;51.118;17.058;2024-01-07T01:13:18;6.83;;;2.30;;
23270;SDS011;11804;51.118;17.058;2024-01-07T01:15:45;5.43;;;2.33;;
23270;SDS011;11804;51.118;17.058;2024-01-07T01:18:13;2.37;;;1.87;;
23270;SDS011;11804;51.118;17.058;2024-01-07T01:20:41;2.33;;;1.40;;
23270;SDS011;11804;51.118;17.058;2024-01-07T01:23:08;4.63;;;1.60;;
23270;SDS011;11804;51.118;17.058;2024-01-07T01:25:36;3.27;;;1.83;;
23270;SDS011;11804;51.118;17.058;2024-01-07T01:28:07;1.17;;;0.90;;
23270;SDS011;11804;51.118;17.058;2024-01-07T01:30:36;3.20;;;1.83;;
23270;SDS011;11804;51.118;17.058;2024-01-07T01:33:03;6.43;;;2.03;;
23270;SDS011;11804;51.118;17.058;2024-01-07T01:35:31;5.93;;;2.27;;
23270;SDS011;11804;51.118;17.058;2024-01-07T01:37:59;2.57;;;1.90;;
23270;SDS011;11804;51.118;17.058;2024-01-07T01:40:28;5.90;;;2.27;;
23270;SDS011;11804;51.118;17.058;2024-01-07T01:43:02;3.10;;;1.77;;
23270;SDS011;11804;51.118;17.058;2024-01-07T01:45:29;3.77;;;1.93;;
23270;SDS011;11804;51.118;17.058;2024-01-07T01:47:57;5.20;;;2.47;;
23270;SDS011;11804;51.118;17.058;2024-01-07T01:50:24;6.47;;;2.47;;
23270;SDS011;11804;51.118;17.058;2024-01-07T01:52:53;3.30;;;1.70;;
23270;SDS011;11804;51.118;17.058;2024-01-07T01:55:26;2.27;;;2.07;;
23270;SDS011;11804;51.118;17.058;2024-01-07T01:57:51;4.17;;;1.60;;
23270;SDS011;11804;51.118;17.058;2024-01-07T02:00:21;4.17;;;2.23;;
23270;SDS011;11804;51.118;17.058;2024-01-07T02:02:48;4.57;;;2.87;;
23270;SDS011;11804;51.118;17.058;2024-01-07T02:05:17;4.73;;;1.63;;
23270;SDS011;11804;51.118;17.058;2024-01-07T02:07:45;4.80;;;2.43;;
23270;SDS011;11804;51.118;17.058;2024-01-07T02:10:13;4.57;;;2.10;;
23270;SDS011;11804;51.118;17.058;2024-01-07T02:12:41;2.03;;;1.67;;
23270;SDS011;11804;51.118;17.058;2024-01-07T02:15:09;3.60;;;1.77;;
23270;SDS011;11804;51.118;17.058;2024-01-07T02:17:38;1.80;;;1.53;;
23270;SDS011;11804;51.118;17.058;2024-01-07T02:20:06;5.83;;;2.40;;
23270;SDS011;11804;51.118;17.058;2024-01-07T02:22:34;8.27;;;2.57;;
23270;SDS011;11804;51.118;17.058;2024-01-07T02:25:02;1.80;;;1.20;;
23270;SDS011;11804;51.118;17.058;2024-01-07T02:27:30;3.30;;;1.63;;
23270;SDS011;11804;51.118;17.058;2024-01-07T02:29:58;3.30;;;1.90;;
23270;SDS011;11804;51.118;17.058;2024-01-07T02:32:27;4.70;;;1.57;;
23270;SDS011;11804;51.118;17.058;2024-01-07T02:34:57;3.93;;;1.60;;
23270;SDS011;11804;51.118;17.058;2024-01-07T02:37:26;3.43;;;1.53;;
23270;SDS011;11804;51.118;17.058;2024-01-07T02:39:54;4.70;;;2.17;;
23270;SDS011;11804;51.118;17.058;2024-01-07T02:42:22;2.47;;;1.73;;
23270;SDS011;11804;51.118;17.058;2024-01-07T02:44:49;1.73;;;1.47;;
23270;SDS011;11804;51.118;17.058;2024-01-07T02:47:17;8.33;;;1.77;;
23270;SDS011;11804;51.118;17.058;2024-01-07T02:49:45;5.70;;;1.60;;
23270;SDS011;11804;51.118;17.058;2024-01-07T02:52:12;3.03;;;1.67;;
23270;SDS011;11804;51.118;17.058;2024-01-07T02:54:40;1.87;;;1.53;;
23270;SDS011;11804;51.118;17.058;2024-01-07T02:57:07;4.63;;;2.03;;
23270;SDS011;11804;51.118;17.058;2024-01-07T02:59:35;2.40;;;1.60;;
23270;SDS011;11804;51.118;17.058;2024-01-07T03:02:03;7.70;;;2.70;;
23270;SDS011;11804;51.118;17.058;2024-01-07T03:04:32;8.47;;;2.80;;
23270;SDS011;11804;51.118;17.058;2024-01-07T03:06:59;2.07;;;1.47;;
23270;SDS011;11804;51.118;17.058;2024-01-07T03:09:27;7.60;;;2.67;;
23270;SDS011;11804;51.118;17.058;2024-01-07T03:11:54;2.97;;;1.77;;
23270;SDS011;11804;51.118;17.058;2024-01-07T03:14:23;4.17;;;2.23;;
23270;SDS011;11804;51.118;17.058;2024-01-07T03:16:52;2.33;;;1.93;;
23270;SDS011;11804;51.118;17.058;2024-01-07T03:19:24;2.97;;;1.80;;
23270;SDS011;11804;51.118;17.058;2024-01-07T03:21:54;3.70;;;2.40;;
23270;SDS011;11804;51.118;17.058;2024-01-07T03:24:22;3.70;;;1.83;;
23270;SDS011;11804;51.118;17.058;2024-01-07T03:26:50;3.40;;;1.40;;
23270;SDS011;11804;51.118;17.058;2024-01-07T03:29:17;2.43;;;2.10;;
23270;SDS011;11804;51.118;17.058;2024-01-07T03:31:45;5.70;;;2.30;;
23270;SDS011;11804;51.118;17.058;2024-01-07T03:34:12;2.50;;;2.30;;
23270;SDS011;11804;51.118;17.058;2024-01-07T03:36:40;6.63;;;2.07;;
23270;SDS011;11804;51.118;17.058;2024-01-07T03:39:07;2.47;;;1.33;;
23270;SDS011;11804;51.118;17.058;2024-01-07T03:41:35;4.07;;;1.80;;
23270;SDS011;11804;51.118;17.058;2024-01-07T03:44:02;2.13;;;1.60;;
23270;SDS011;11804;51.118;17.058;2024-01-07T03:46:30;2.83;;;1.17;;
23270;SDS011;11804;51.118;17.058;2024-01-07T03:48:58;3.73;;;1.97;;
23270;SDS011;11804;51.118;17.058;2024-01-07T03:51:25;2.60;;;1.37;;
23270;SDS011;11804;51.118;17.058;2024-01-07T03:53:54;3.83;;;2.23;;
23270;SDS011;11804;51.118;17.058;2024-01-07T03:56:21;2.83;;;1.43;;
23270;SDS011;11804;51.118;17.058;2024-01-07T03:58:49;5.60;;;2.13;;
23270;SDS011;11804;51.118;17.058;2024-01-07T04:01:17;4.53;;;1.87;;
23270;SDS011;11804;51.118;17.058;2024-01-07T04:03:44;2.67;;;1.17;;
23270;SDS011;11804;51.118;17.058;2024-01-07T04:06:12;3.47;;;2.03;;
23270;SDS011;11804;51.118;17.058;2024-01-07T04:08:39;3.70;;;1.67;;
23270;SDS011;11804;51.118;17.058;2024-01-07T04:11:07;1.47;;;1.10;;
23270;SDS011;11804;51.118;17.058;2024-01-07T04:13:34;4.73;;;1.73;;
23270;SDS011;11804;51.118;17.058;2024-01-07T04:16:03;2.97;;;1.83;;
23270;SDS011;11804;51.118;17.058;2024-01-07T04:18:32;1.33;;;1.20;;
23270;SDS011;11804;51.118;17.058;2024-01-07T04:20:59;4.23;;;1.87;;
23270;SDS011;11804;51.118;17.058;2024-01-07T04:23:27;3.07;;;2.10;;
23270;SDS011;11804;51.118;17.058;2024-01-07T04:25:57;3.80;;;1.63;;
23270;SDS011;11804;51.118;17.058;2024-01-07T04:28:25;2.20;;;1.80;;
23270;SDS011;11804;51.118;17.058;2024-01-07T04:30:53;2.73;;;1.90;;
23270;SDS011;11804;51.118;17.058;2024-01-07T04:33:22;3.63;;;2.20;;
23270;SDS011;11804;51.118;17.058;2024-01-07T04:35:49;2.77;;;1.33;;
23270;SDS011;11804;51.118;17.058;2024-01-07T04:38:17;3.93;;;1.50;;
23270;SDS011;11804;51.118;17.058;2024-01-07T04:40:45;3.43;;;2.00;;
23270;SDS011;11804;51.118;17.058;2024-01-07T04:43:12;3.47;;;1.53;;
23270;SDS011;11804;51.118;17.058;2024-01-07T04:45:40;3.73;;;1.70;;
23270;SDS011;11804;51.118;17.058;2024-01-07T04:48:08;1.30;;;1.17;;
23270;SDS011;11804;51.118;17.058;2024-01-07T04:50:36;1.63;;;1.53;;
23270;SDS011;11804;51.118;17.058;2024-01-07T04:53:07;2.13;;;1.20;;
23270;SDS011;11804;51.118;17.058;2024-01-07T04:55:38;3.27;;;1.17;;
23270;SDS011;11804;51.118;17.058;2024-01-07T04:58:07;3.73;;;1.60;;
23270;SDS011;11804;51.118;17.058;2024-01-07T05:00:35;2.87;;;1.80;;
23270;SDS011;11804;51.118;17.058;2024-01-07T05:03:02;5.23;;;2.27;;
23270;SDS011;11804;51.118;17.058;2024-01-07T05:05:29;2.43;;;1.20;;
23270;SDS011;11804;51.118;17.058;2024-01-07T05:07:58;3.80;;;2.20;;
23270;SDS011;11804;51.118;17.058;2024-01-07T05:10:27;2.83;;;1.37;;
23270;SDS011;11804;51.118;17.058;2024-01-07T05:12:54;3.70;;;1.40;;
23270;SDS011;11804;51.118;17.058;2024-01-07T05:15:21;2.13;;;1.83;;
23270;SDS011;11804;51.118;17.058;2024-01-07T05:17:48;1.70;;;1.13;;
23270;SDS011;11804;51.118;17.058;2024-01-07T05:20:16;3.10;;;1.30;;
23270;SDS011;11804;51.118;17.058;2024-01-07T05:22:43;2.47;;;1.23;;
23270;SDS011;11804;51.118;17.058;2024-01-07T05:25:10;1.17;;;1.00;;
23270;SDS011;11804;51.118;17.058;2024-01-07T05:27:38;0.87;;;0.83;;
23270;SDS011;11804;51.118;17.058;2024-01-07T05:30:05;2.10;;;1.13;;
23270;SDS011;11804;51.118;17.058;2024-01-07T05:32:34;2.57;;;1.43;;
23270;SDS011;11804;51.118;17.058;2024-01-07T05:35:01;2.87;;;1.53;;
23270;SDS011;11804;51.118;17.058;2024-01-07T05:37:28;3.50;;;2.10;;
23270;SDS011;11804;51.118;17.058;2024-01-07T05:39:56;1.97;;;1.17;;
23270;SDS011;11804;51.118;17.058;2024-01-07T05:42:23;2.57;;;0.97;;
23270;SDS011;11804;51.118;17.058;2024-01-07T05:44:50;2.60;;;1.27;;
23270;SDS011;11804;51.118;17.058;2024-01-07T05:47:17;5.37;;;1.70;;
23270;SDS011;11804;51.118;17.058;2024-01-07T05:49:45;3.60;;;1.10;;
23270;SDS011;11804;51.118;17.058;2024-01-07T05:52:12;4.97;;;2.00;;
23270;SDS011;11804;51.118;17.058;2024-01-07T05:54:40;2.87;;;1.33;;
23270;SDS011;11804;51.118;17.058;2024-01-07T05:57:07;3.13;;;1.50;;
23270;SDS011;11804;51.118;17.058;2024-01-07T05:59:36;2.40;;;1.43;;
23270;SDS011;11804;51.118;17.058;2024-01-07T06:02:03;1.97;;;1.03;;
23270;SDS011;11804;51.118;17.058;2024-01-07T06:04:31;2.50;;;1.60;;
23270;SDS011;11804;51.118;17.058;2024-01-07T06:06:58;1.70;;;0.93;;
23270;SDS011;11804;51.118;17.058;2024-01-07T06:09:26;3.77;;;1.30;;
23270;SDS011;11804;51.118;17.058;2024-01-07T06:11:54;1.90;;;1.17;;
23270;SDS011;11804;51.118;17.058;2024-01-07T06:14:22;1.53;;;1.30;;
23270;SDS011;11804;51.118;17.058;2024-01-07T06:16:49;2.23;;;1.70;;
23270;SDS011;11804;51.118;17.058;2024-01-07T06:19:16;6.20;;;1.40;;
23270;SDS011;11804;51.118;17.058;2024-01-07T06:21:45;3.47;;;1.00;;
23270;SDS011;11804;51.118;17.058;2024-01-07T06:24:13;1.23;;;1.10;;
23270;SDS011;11804;51.118;17.058;2024-01-07T06:26:41;1.00;;;0.80;;
23270;SDS011;11804;51.118;17.058;2024-01-07T06:29:08;1.83;;;1.40;;
23270;SDS011;11804;51.118;17.058;2024-01-07T06:31:35;1.00;;;0.77;;
23270;SDS011;11804;51.118;17.058;2024-01-07T06:34:03;2.00;;;1.13;;
23270;SDS011;11804;51.118;17.058;2024-01-07T06:36:30;1.80;;;1.30;;
23270;SDS011;11804;51.118;17.058;2024-01-07T06:38:57;1.20;;;0.73;;
23270;SDS011;11804;51.118;17.058;2024-01-07T06:41:26;0.73;;;0.73;;
23270;SDS011;11804;51.118;17.058;2024-01-07T06:43:53;1.07;;;1.00;;
23270;SDS011;11804;51.118;17.058;2024-01-07T06:46:22;2.87;;;1.27;;
23270;SDS011;11804;51.118;17.058;2024-01-07T06:48:49;2.63;;;1.07;;
23270;SDS011;11804;51.118;17.058;2024-01-07T06:51:16;3.17;;;1.13;;
23270;SDS011;11804;51.118;17.058;2024-01-07T06:53:44;2.90;;;1.47;;
23270;SDS011;11804;51.118;17.058;2024-01-07T06:56:14;0.70;;;0.67;;
23270;SDS011;11804;51.118;17.058;2024-01-07T06:58:44;2.60;;;1.23;;
23270;SDS011;11804;51.118;17.058;2024-01-07T07:01:10;3.80;;;1.20;;
23270;SDS011;11804;51.118;17.058;2024-01-07T07:03:38;2.13;;;1.17;;
23270;SDS011;11804;51.118;17.058;2024-01-07T07:06:05;1.33;;;0.60;;
23270;SDS011;11804;51.118;17.058;2024-01-07T07:08:32;1.70;;;1.00;;
23270;SDS011;11804;51.118;17.058;2024-01-07T07:11:00;2.40;;;0.77;;
23270;SDS011;11804;51.118;17.058;2024-01-07T07:13:28;1.83;;;1.07;;
23270;SDS011;11804;51.118;17.058;2024-01-07T07:15:55;0.67;;;0.40;;
23270;SDS011;11804;51.118;17.058;2024-01-07T07:18:23;1.60;;;0.83;;
23270;SDS011;11804;51.118;17.058;2024-01-07T07:20:50;1.70;;;0.77;;
23270;SDS011;11804;51.118;17.058;2024-01-07T07:23:18;1.00;;;0.77;;
23270;SDS011;11804;51.118;17.058;2024-01-07T07:25:45;1.23;;;0.97;;
23270;SDS011;11804;51.118;17.058;2024-01-07T07:28:14;0.60;;;0.60;;
23270;SDS011;11804;51.118;17.058;2024-01-07T07:30:43;0.87;;;0.70;;
23270;SDS011;11804;51.118;17.058;2024-01-07T07:33:10;3.20;;;1.33;;
23270;SDS011;11804;51.118;17.058;2024-01-07T07:35:38;0.63;;;0.60;;
23270;SDS011;11804;51.118;17.058;2024-01-07T07:38:07;1.47;;;0.60;;
23270;SDS011;11804;51.118;17.058;2024-01-07T07:40:34;2.23;;;0.83;;
23270;SDS011;11804;51.118;17.058;2024-01-07T07:43:02;1.43;;;0.80;;
23270;SDS011;11804;51.118;17.058;2024-01-07T07:45:29;1.70;;;0.90;;
23270;SDS011;11804;51.118;17.058;2024-01-07T07:47:56;0.90;;;0.50;;
23270;SDS011;11804;51.118;17.058;2024-01-07T07:50:24;1.83;;;1.07;;
23270;SDS011;11804;51.118;17.058;2024-01-07T07:52:51;2.60;;;1.37;;
23270;SDS011;11804;51.118;17.058;2024-01-07T07:55:19;0.30;;;0.30;;
23270;SDS011;11804;51.118;17.058;2024-01-07T07:57:47;0.73;;;0.73;;
23270;SDS011;11804;51.118;17.058;2024-01-07T08:00:14;1.53;;;0.57;;
23270;SDS011;11804;51.118;17.058;2024-01-07T08:02:41;1.13;;;0.60;;
23270;SDS011;11804;51.118;17.058;2024-01-07T08:05:09;0.70;;;0.70;;
23270;SDS011;11804;51.118;17.058;2024-01-07T08:07:36;0.50;;;0.33;;
23270;SDS011;11804;51.118;17.058;2024-01-07T08:10:04;1.83;;;0.70;;
23270;SDS011;11804;51.118;17.058;2024-01-07T08:12:31;0.67;;;0.67;;
23270;SDS011;11804;51.118;17.058;2024-01-07T08:14:59;1.57;;;0.80;;
23270;SDS011;11804;51.118;17.058;2024-01-07T08:17:26;1.40;;;0.80;;
23270;SDS011;11804;51.118;17.058;2024-01-07T08:19:54;3.90;;;1.03;;
23270;SDS011;11804;51.118;17.058;2024-01-07T08:22:22;0.77;;;0.77;;
23270;SDS011;11804;51.118;17.058;2024-01-07T08:24:49;1.10;;;0.77;;
23270;SDS011;11804;51.118;17.058;2024-01-07T08:27:17;2.33;;;1.30;;
23270;SDS011;11804;51.118;17.058;2024-01-07T08:29:44;3.60;;;1.40;;
23270;SDS011;11804;51.118;17.058;2024-01-07T08:32:13;1.10;;;0.90;;
23270;SDS011;11804;51.118;17.058;2024-01-07T08:34:40;3.33;;;1.27;;
23270;SDS011;11804;51.118;17.058;2024-01-07T08:37:07;1.63;;;1.00;;
23270;SDS011;11804;51.118;17.058;2024-01-07T08:39:35;0.80;;;0.60;;
23270;SDS011;11804;51.118;17.058;2024-01-07T08:42:03;2.80;;;1.13;;
23270;SDS011;11804;51.118;17.058;2024-01-07T08:44:30;1.33;;;1.03;;
23270;SDS011;11804;51.118;17.058;2024-01-07T08:46:58;3.20;;;1.40;;
23270;SDS011;11804;51.118;17.058;2024-01-07T08:49:30;1.27;;;0.90;;
23270;SDS011;11804;51.118;17.058;2024-01-07T08:51:59;2.60;;;0.80;;
23270;SDS011;11804;51.118;17.058;2024-01-07T08:54:27;2.63;;;0.90;;
23270;SDS011;11804;51.118;17.058;2024-01-07T08:56:54;2.43;;;1.60;;
23270;SDS011;11804;51.118;17.058;2024-01-07T08:59:22;1.17;;;0.93;;
23270;SDS011;11804;51.118;17.058;2024-01-07T09:01:50;3.33;;;1.33;;
23270;SDS011;11804;51.118;17.058;2024-01-07T09:04:17;2.47;;;1.00;;
23270;SDS011;11804;51.118;17.058;2024-01-07T09:06:44;1.53;;;1.13;;
23270;SDS011;11804;51.118;17.058;2024-01-07T09:09:12;2.87;;;1.37;;
23270;SDS011;11804;51.118;17.058;2024-01-07T09:11:39;1.53;;;1.13;;
23270;SDS011;11804;51.118;17.058;2024-01-07T09:14:06;2.17;;;1.30;;
23270;SDS011;11804;51.118;17.058;2024-01-07T09:16:34;3.03;;;1.60;;
23270;SDS011;11804;51.118;17.058;2024-01-07T09:19:01;2.53;;;1.33;;
23270;SDS011;11804;51.118;17.058;2024-01-07T09:21:29;3.90;;;1.47;;
23270;SDS011;11804;51.118;17.058;2024-01-07T09:23:56;4.47;;;1.70;;
23270;SDS011;11804;51.118;17.058;2024-01-07T09:26:23;1.40;;;1.30;;
23270;SDS011;11804;51.118;17.058;2024-01-07T09:28:51;2.47;;;0.70;;
23270;SDS011;11804;51.118;17.058;2024-01-07T09:31:21;2.20;;;1.57;;
23270;SDS011;11804;51.118;17.058;2024-01-07T09:33:49;1.10;;;1.00;;
23270;SDS011;11804;51.118;17.058;2024-01-07T09:36:17;5.20;;;1.80;;
23270;SDS011;11804;51.118;17.058;2024-01-07T09:38:44;5.93;;;3.33;;
23270;SDS011;11804;51.118;17.058;2024-01-07T09:41:11;8.40;;;3.67;;
23270;SDS011;11804;51.118;17.058;2024-01-07T09:43:39;2.43;;;2.10;;
23270;SDS011;11804;51.118;17.058;2024-01-07T09:46:06;4.23;;;1.47;;
23270;SDS011;11804;51.118;17.058;2024-01-07T09:48:38;3.53;;;1.87;;
23270;SDS011;11804;51.118;17.058;2024-01-07T09:51:02;2.07;;;1.37;;
23270;SDS011;11804;51.118;17.058;2024-01-07T09:53:31;4.37;;;1.70;;
23270;SDS011;11804;51.118;17.058;2024-01-07T09:58:36;2.33;;;1.20;;
23270;SDS011;11804;51.118;17.058;2024-01-07T10:01:04;3.70;;;2.17;;
23270;SDS011;11804;51.118;17.058;2024-01-07T10:03:31;1.00;;;0.73;;
23270;SDS011;11804;51.118;17.058;2024-01-07T10:05:59;1.67;;;0.90;;
23270;SDS011;11804;51.118;17.058;2024-01-07T10:08:33;1.80;;;0.70;;
23270;SDS011;11804;51.118;17.058;2024-01-07T10:10:57;1.83;;;1.03;;
23270;SDS011;11804;51.118;17.058;2024-01-07T10:13:25;2.17;;;1.23;;
23270;SDS011;11804;51.118;17.058;2024-01-07T10:15:52;2.03;;;1.17;;
23270;SDS011;11804;51.118;17.058;2024-01-07T10:18:21;1.73;;;0.87;;
23270;SDS011;11804;51.118;17.058;2024-01-07T10:20:49;2.80;;;1.70;;
23270;SDS011;11804;51.118;17.058;2024-01-07T10:23:19;4.23;;;1.50;;
23270;SDS011;11804;51.118;17.058;2024-01-07T10:25:48;4.30;;;1.47;;
23270;SDS011;11804;51.118;17.058;2024-01-07T10:28:15;2.33;;;1.00;;
23270;SDS011;11804;51.118;17.058;2024-01-07T10:30:48;1.80;;;1.00;;
23270;SDS011;11804;51.118;17.058;2024-01-07T10:33:13;2.00;;;0.90;;
23270;SDS011;11804;51.118;17.058;2024-01-07T10:35:40;3.13;;;1.47;;
23270;SDS011;11804;51.118;17.058;2024-01-07T10:38:09;1.70;;;1.00;;
23270;SDS011;11804;51.118;17.058;2024-01-07T10:40:36;2.00;;;1.00;;
23270;SDS011;11804;51.118;17.058;2024-01-07T10:43:06;2.97;;;1.20;;
23270;SDS011;11804;51.118;17.058;2024-01-07T10:45:33;1.67;;;1.43;;
23270;SDS011;11804;51.118;17.058;2024-01-07T10:48:03;6.83;;;1.37;;
23270;SDS011;11804;51.118;17.058;2024-01-07T10:50:34;1.33;;;0.87;;
23270;SDS011;11804;51.118;17.058;2024-01-07T10:53:04;1.93;;;1.27;;
23270;SDS011;11804;51.118;17.058;2024-01-07T10:55:34;3.90;;;1.37;;
23270;SDS011;11804;51.118;17.058;2024-01-07T10:58:03;4.90;;;2.30;;
23270;SDS011;11804;51.118;17.058;2024-01-07T11:00:32;5.10;;;2.50;;
23270;SDS011;11804;51.118;17.058;2024-01-07T11:03:02;2.93;;;1.90;;
23270;SDS011;11804;51.118;17.058;2024-01-07T11:05:47;10.47;;;1.93;;
23270;SDS011;11804;51.118;17.058;2024-01-07T11:08:15;7.33;;;2.27;;
23270;SDS011;11804;51.118;17.058;2024-01-07T11:10:47;2.50;;;2.07;;
23270;SDS011;11804;51.118;17.058;2024-01-07T11:16:02;4.50;;;1.67;;
23270;SDS011;11804;51.118;17.058;2024-01-07T11:18:30;1.57;;;1.47;;
23270;SDS011;11804;51.118;17.058;2024-01-07T11:21:01;2.60;;;1.60;;
23270;SDS011;11804;51.118;17.058;2024-01-07T11:23:29;2.57;;;2.10;;
23270;SDS011;11804;51.118;17.058;2024-01-07T11:25:57;4.20;;;2.07;;
23270;SDS011;11804;51.118;17.058;2024-01-07T11:28:49;4.47;;;2.30;;
23270;SDS011;11804;51.118;17.058;2024-01-07T11:31:12;8.47;;;2.37;;
23270;SDS011;11804;51.118;17.058;2024-01-07T11:33:49;4.57;;;2.57;;
23270;SDS011;11804;51.118;17.058;2024-01-07T11:36:13;7.10;;;2.60;;
23270;SDS011;11804;51.118;17.058;2024-01-07T11:38:49;2.30;;;1.40;;
23270;SDS011;11804;51.118;17.058;2024-01-07T11:41:17;9.73;;;3.10;;
23270;SDS011;11804;51.118;17.058;2024-01-07T11:43:55;5.90;;;1.83;;
23270;SDS011;11804;51.118;17.058;2024-01-07T11:46:25;3.40;;;1.90;;
23270;SDS011;11804;51.118;17.058;2024-01-07T11:48:53;3.50;;;1.47;;
23270;SDS011;11804;51.118;17.058;2024-01-07T11:51:22;3.13;;;1.57;;
23270;SDS011;11804;51.118;17.058;2024-01-07T11:53:49;3.47;;;2.03;;
23270;SDS011;11804;51.118;17.058;2024-01-07T11:56:18;3.77;;;2.30;;
23270;SDS011;11804;51.118;17.058;2024-01-07T11:58:47;4.97;;;2.60;;
23270;SDS011;11804;51.118;17.058;2024-01-07T12:01:16;2.20;;;1.73;;
23270;SDS011;11804;51.118;17.058;2024-01-07T12:03:43;4.03;;;1.23;;
23270;SDS011;11804;51.118;17.058;2024-01-07T12:06:11;4.43;;;2.60;;
23270;SDS011;11804;51.118;17.058;2024-01-07T12:08:41;9.30;;;2.17;;
23270;SDS011;11804;51.118;17.058;2024-01-07T12:11:09;16.97;;;6.87;;
23270;SDS011;11804;51.118;17.058;2024-01-07T12:13:37;12.03;;;6.40;;
23270;SDS011;11804;51.118;17.058;2024-01-07T12:16:08;4.73;;;3.23;;
23270;SDS011;11804;51.118;17.058;2024-01-07T12:18:37;6.37;;;2.20;;
23270;SDS011;11804;51.118;17.058;2024-01-07T12:21:06;5.07;;;2.43;;
23270;SDS011;11804;51.118;17.058;2024-01-07T12:23:36;7.87;;;3.47;;
23270;SDS011;11804;51.118;17.058;2024-01-07T12:26:07;2.70;;;1.37;;
23270;SDS011;11804;51.118;17.058;2024-01-07T12:28:36;3.17;;;1.53;;
23270;SDS011;11804;51.118;17.058;2024-01-07T12:31:04;3.13;;;2.23;;
23270;SDS011;11804;51.118;17.058;2024-01-07T12:33:32;4.50;;;2.80;;
23270;SDS011;11804;51.118;17.058;2024-01-07T12:35:59;3.93;;;2.07;;
23270;SDS011;11804;51.118;17.058;2024-01-07T12:38:27;9.20;;;3.70;;
23270;SDS011;11804;51.118;17.058;2024-01-07T12:40:55;4.83;;;2.87;;
23270;SDS011;11804;51.118;17.058;2024-01-07T12:43:22;4.57;;;2.37;;
23270;SDS011;11804;51.118;17.058;2024-01-07T12:45:50;3.83;;;1.97;;
23270;SDS011;11804;51.118;17.058;2024-01-07T12:48:18;8.37;;;2.33;;
23270;SDS011;11804;51.118;17.058;2024-01-07T12:50:46;5.77;;;2.43;;
23270;SDS011;11804;51.118;17.058;2024-01-07T12:53:13;3.57;;;2.17;;
23270;SDS011;11804;51.118;17.058;2024-01-07T12:55:40;3.27;;;1.53;;
23270;SDS011;11804;51.118;17.058;2024-01-07T12:58:08;6.07;;;1.73;;
23270;SDS011;11804;51.118;17.058;2024-01-07T13:00:35;2.63;;;1.83;;
23270;SDS011;11804;51.118;17.058;2024-01-07T13:03:02;4.73;;;2.70;;
23270;SDS011;11804;51.118;17.058;2024-01-07T13:05:31;6.20;;;2.07;;
23270;SDS011;11804;51.118;17.058;2024-01-07T13:07:58;5.17;;;2.73;;
23270;SDS011;11804;51.118;17.058;2024-01-07T13:10:26;6.33;;;3.33;;
23270;SDS011;11804;51.118;17.058;2024-01-07T13:12:54;5.03;;;2.17;;
23270;SDS011;11804;51.118;17.058;2024-01-07T13:15:21;3.97;;;2.50;;
23270;SDS011;11804;51.118;17.058;2024-01-07T13:17:48;3.90;;;1.90;;
23270;SDS011;11804;51.118;17.058;2024-01-07T13:20:17;5.13;;;1.83;;
23270;SDS011;11804;51.118;17.058;2024-01-07T13:22:46;6.50;;;2.43;;
23270;SDS011;11804;51.118;17.058;2024-01-07T13:25:13;3.80;;;2.00;;
23270;SDS011;11804;51.118;17.058;2024-01-07T13:27:41;4.23;;;1.97;;
23270;SDS011;11804;51.118;17.058;2024-01-07T13:30:10;9.60;;;2.80;;
23270;SDS011;11804;51.118;17.058;2024-01-07T13:32:37;3.27;;;2.10;;
23270;SDS011;11804;51.118;17.058;2024-01-07T13:35:05;6.97;;;3.23;;
23270;SDS011;11804;51.118;17.058;2024-01-07T13:37:33;3.10;;;1.63;;
23270;SDS011;11804;51.118;17.058;2024-01-07T13:40:00;3.27;;;1.80;;
23270;SDS011;11804;51.118;17.058;2024-01-07T13:42:27;6.40;;;2.87;;
23270;SDS011;11804;51.118;17.058;2024-01-07T13:44:55;1.90;;;1.80;;
23270;SDS011;11804;51.118;17.058;2024-01-07T13:47:22;7.17;;;2.33;;
23270;SDS011;11804;51.118;17.058;2024-01-07T13:49:49;2.87;;;2.00;;
23270;SDS011;11804;51.118;17.058;2024-01-07T13:52:16;5.27;;;2.97;;
23270;SDS011;11804;51.118;17.058;2024-01-07T13:54:44;3.03;;;1.93;;
23270;SDS011;11804;51.118;17.058;2024-01-07T13:57:11;5.93;;;2.63;;
23270;SDS011;11804;51.118;17.058;2024-01-07T13:59:39;6.27;;;1.90;;
23270;SDS011;11804;51.118;17.058;2024-01-07T14:02:07;2.57;;;1.57;;
23270;SDS011;11804;51.118;17.058;2024-01-07T14:04:35;4.80;;;2.53;;
23270;SDS011;11804;51.118;17.058;2024-01-07T14:07:03;7.73;;;3.40;;
23270;SDS011;11804;51.118;17.058;2024-01-07T14:09:30;4.63;;;1.97;;
23270;SDS011;11804;51.118;17.058;2024-01-07T14:11:58;5.53;;;2.40;;
23270;SDS011;11804;51.118;17.058;2024-01-07T14:14:25;6.03;;;2.10;;
23270;SDS011;11804;51.118;17.058;2024-01-07T14:16:52;8.83;;;3.37;;
23270;SDS011;11804;51.118;17.058;2024-01-07T14:19:20;3.00;;;2.17;;
23270;SDS011;11804;51.118;17.058;2024-01-07T14:21:48;3.17;;;2.03;;
23270;SDS011;11804;51.118;17.058;2024-01-07T14:24:17;5.00;;;2.27;;
23270;SDS011;11804;51.118;17.058;2024-01-07T14:26:46;6.33;;;2.03;;
23270;SDS011;11804;51.118;17.058;2024-01-07T14:29:13;2.57;;;2.20;;
23270;SDS011;11804;51.118;17.058;2024-01-07T14:31:40;1.93;;;1.63;;
23270;SDS011;11804;51.118;17.058;2024-01-07T14:34:08;2.53;;;1.57;;
23270;SDS011;11804;51.118;17.058;2024-01-07T14:36:38;2.87;;;2.07;;
23270;SDS011;11804;51.118;17.058;2024-01-07T14:39:04;3.97;;;1.77;;
23270;SDS011;11804;51.118;17.058;2024-01-07T14:41:31;3.43;;;1.70;;
23270;SDS011;11804;51.118;17.058;2024-01-07T14:43:58;2.00;;;1.50;;